createdAt,value
2022-10-01T00:01:34.105Z,6.97
2022-10-01T00:04:19.633Z,7.25
2022-10-01T00:07:09.324Z,7.55
2022-10-01T00:09:54.335Z,7.55
2022-10-01T00:12:46.429Z,8.32
2022-10-01T00:15:31.697Z,7.95
2022-10-01T00:18:17.246Z,8.52
2022-10-01T00:21:10.166Z,8.73
2022-10-01T00:23:57.860Z,8.60
2022-10-01T00:26:45.358Z,8.32
2022-10-01T00:29:31.853Z,8.15
2022-10-01T00:32:17.101Z,8.50
2022-10-01T00:35:06.617Z,8.73
2022-10-01T00:37:52.525Z,7.90
2022-10-01T00:40:37.994Z,7.75
2022-10-01T00:43:26.853Z,7.03
2022-10-01T00:46:38.061Z,7.15
2022-10-01T00:49:27.666Z,6.55
2022-10-01T00:52:22.083Z,6.18
2022-10-01T00:55:13.368Z,5.68
2022-10-01T00:57:58.911Z,5.82
2022-10-01T01:00:45.179Z,5.72
2022-10-01T01:03:30.432Z,5.32
2022-10-01T01:06:15.886Z,5.63
2022-10-01T01:09:03.267Z,5.00
2022-10-01T01:12:12.110Z,5.00
2022-10-01T01:15:09.853Z,4.60
2022-10-01T01:18:09.552Z,4.45
2022-10-01T01:21:00.735Z,4.20
2022-10-01T01:24:20.467Z,4.00
2022-10-01T01:27:19.024Z,3.47
2022-10-01T01:30:10.753Z,3.33
2022-10-01T01:33:04.585Z,3.47
2022-10-01T01:36:06.865Z,3.83
2022-10-01T01:39:00.104Z,3.53
2022-10-01T01:41:51.141Z,3.75
2022-10-01T01:44:40.641Z,3.90
2022-10-01T01:47:30.484Z,4.10
2022-10-01T01:50:16.848Z,4.35
2022-10-01T01:53:02.976Z,4.38
2022-10-01T01:55:49.488Z,4.13
2022-10-01T01:58:36.125Z,4.35
2022-10-01T02:01:33.072Z,3.90
2022-10-01T02:04:54.873Z,4.40
2022-10-01T02:08:00.182Z,4.25
2022-10-01T02:11:09.337Z,4.47
2022-10-01T02:14:14.383Z,4.70
2022-10-01T02:17:30.904Z,4.30
2022-10-01T02:20:42.176Z,4.00
2022-10-01T02:23:34.176Z,3.80
2022-10-01T02:26:22.805Z,3.92
2022-10-01T02:29:13.115Z,3.60
2022-10-01T02:31:59.189Z,3.65
2022-10-01T02:34:47.282Z,3.25
2022-10-01T02:37:34.141Z,3.28
2022-10-01T02:40:28.565Z,3.03
2022-10-01T02:43:18.761Z,3.08
2022-10-01T02:46:15.702Z,3.28
2022-10-01T02:49:02.854Z,3.00
2022-10-01T02:52:09.981Z,3.28
2022-10-01T02:55:06.544Z,3.00
2022-10-01T02:57:51.813Z,3.10
2022-10-01T03:00:37.240Z,3.45
2022-10-01T03:03:26.023Z,3.25
2022-10-01T03:06:11.065Z,3.55
2022-10-01T03:08:57.505Z,3.35
2022-10-01T03:11:43.411Z,3.40
2022-10-01T03:14:29.118Z,3.65
2022-10-01T03:17:14.989Z,3.53
2022-10-01T03:20:00.404Z,4.07
2022-10-01T03:22:46.859Z,4.18
2022-10-01T03:25:32.491Z,3.90
2022-10-01T03:28:17.787Z,4.18
2022-10-01T03:31:10.554Z,3.97
2022-10-01T03:34:00.355Z,4.28
2022-10-01T03:36:46.832Z,4.43
2022-10-01T03:39:32.065Z,4.30
2022-10-01T03:42:17.706Z,4.28
2022-10-01T03:45:03.394Z,4.38
2022-10-01T03:47:52.982Z,4.60
2022-10-01T03:50:38.129Z,4.05
2022-10-01T03:53:25.356Z,4.63
2022-10-01T03:56:10.273Z,4.38
2022-10-01T03:58:55.965Z,4.50
2022-10-01T04:01:41.366Z,4.03
2022-10-01T04:04:29.051Z,4.30
2022-10-01T04:07:14.752Z,4.03
2022-10-01T04:10:00.528Z,4.35
2022-10-01T04:12:45.540Z,4.45
2022-10-01T04:15:32.651Z,4.10
2022-10-01T04:18:19.230Z,4.13
2022-10-01T04:21:05.056Z,3.60
2022-10-01T04:23:50.630Z,3.42
2022-10-01T04:26:36.100Z,3.42
2022-10-01T04:29:21.552Z,3.53
2022-10-01T04:32:07.192Z,3.03
2022-10-01T04:34:52.861Z,2.85
2022-10-01T04:37:38.272Z,2.80
2022-10-01T04:40:23.613Z,2.80
2022-10-01T04:43:11.100Z,2.45
2022-10-01T04:45:56.497Z,2.50
2022-10-01T04:48:41.864Z,2.08
2022-10-01T04:51:27.348Z,2.20
2022-10-01T04:54:12.689Z,2.50
2022-10-01T04:56:58.420Z,2.15
2022-10-01T04:59:43.924Z,2.33
2022-10-01T05:02:29.815Z,2.20
2022-10-01T05:05:17.109Z,2.50
2022-10-01T05:08:02.715Z,2.03
2022-10-01T05:10:48.429Z,1.98
2022-10-01T05:13:33.770Z,2.10
2022-10-01T05:16:19.216Z,2.00
2022-10-01T05:19:04.839Z,1.90
2022-10-01T05:21:51.624Z,1.70
2022-10-01T05:24:37.060Z,1.60
2022-10-01T05:27:22.463Z,1.92
2022-10-01T05:30:10.480Z,1.60
2022-10-01T05:32:58.201Z,1.80
2022-10-01T05:35:44.340Z,1.70
2022-10-01T05:38:29.481Z,1.75
2022-10-01T05:41:14.987Z,1.65
2022-10-01T05:44:00.628Z,1.65
2022-10-01T05:46:45.863Z,1.58
2022-10-01T05:49:31.490Z,1.73
2022-10-01T05:52:16.935Z,1.80
2022-10-01T05:55:02.547Z,1.63
2022-10-01T05:57:59.017Z,1.42
2022-10-01T06:00:44.391Z,1.63
2022-10-01T06:03:29.611Z,1.70
2022-10-01T06:06:15.084Z,1.98
2022-10-01T06:09:00.641Z,1.67
2022-10-01T06:11:49.040Z,1.73
2022-10-01T06:14:34.307Z,2.00
2022-10-01T06:17:19.540Z,1.90
2022-10-01T06:20:05.435Z,2.10
2022-10-01T06:22:56.008Z,1.75
2022-10-01T06:25:42.709Z,1.90
2022-10-01T06:28:28.912Z,1.45
2022-10-01T06:31:14.872Z,1.83
2022-10-01T06:34:00.855Z,1.50
2022-10-01T06:36:46.343Z,1.60
2022-10-01T06:39:31.705Z,1.50
2022-10-01T06:42:17.017Z,1.80
2022-10-01T06:45:02.473Z,1.60
2022-10-01T06:48:05.222Z,1.40
2022-10-01T06:50:52.439Z,1.55
2022-10-01T06:53:37.939Z,1.55
2022-10-01T06:56:23.359Z,1.55
2022-10-01T06:59:08.879Z,1.48
2022-10-01T07:01:56.489Z,1.60
2022-10-01T07:04:41.719Z,1.40
2022-10-01T07:07:35.485Z,1.30
2022-10-01T07:10:23.010Z,1.33
2022-10-01T07:13:17.562Z,1.30
2022-10-01T07:16:04.375Z,1.60
2022-10-01T07:18:49.766Z,1.52
2022-10-01T07:21:35.457Z,1.08
2022-10-01T07:24:21.253Z,1.60
2022-10-01T07:27:07.599Z,1.10
2022-10-01T07:29:53.383Z,1.10
2022-10-01T07:32:38.417Z,1.00
2022-10-01T07:35:23.977Z,1.27
2022-10-01T07:38:10.029Z,1.10
2022-10-01T07:40:55.302Z,1.02
2022-10-01T07:43:42.241Z,1.50
2022-10-01T07:46:31.442Z,1.05
2022-10-01T07:49:20.345Z,1.00
2022-10-01T07:52:10.888Z,1.10
2022-10-01T07:54:58.281Z,1.00
2022-10-01T07:57:43.865Z,1.10
2022-10-01T08:00:31.227Z,1.13
2022-10-01T08:03:16.695Z,1.40
2022-10-01T08:06:06.750Z,1.15
2022-10-01T08:08:52.341Z,1.70
2022-10-01T08:11:37.968Z,1.38
2022-10-01T08:14:23.243Z,1.27
2022-10-01T08:17:08.639Z,1.80
2022-10-01T08:19:53.907Z,1.40
2022-10-01T08:22:42.380Z,1.60
2022-10-01T08:25:28.224Z,1.85
2022-10-01T08:28:14.425Z,1.55
2022-10-01T08:31:06.759Z,1.63
2022-10-01T08:33:52.271Z,1.85
2022-10-01T08:36:38.445Z,1.80
2022-10-01T08:39:23.844Z,1.70
2022-10-01T08:42:33.316Z,1.92
2022-10-01T08:45:36.162Z,1.40
2022-10-01T08:48:36.860Z,1.40
2022-10-01T08:51:47.632Z,1.50
2022-10-01T08:54:39.542Z,1.77
2022-10-01T08:57:30.592Z,1.80
2022-10-01T09:00:18.664Z,1.48
2022-10-01T09:03:06.705Z,1.45
2022-10-01T09:05:55.340Z,1.40
2022-10-01T09:08:57.726Z,2.10
2022-10-01T09:12:04.998Z,1.80
2022-10-01T09:15:26.376Z,1.65
2022-10-01T09:18:34.092Z,1.63
2022-10-01T09:21:25.803Z,2.33
2022-10-01T09:24:38.698Z,1.85
2022-10-01T09:27:26.527Z,1.98
2022-10-01T09:30:16.429Z,1.60
2022-10-01T09:33:16.265Z,1.88
2022-10-01T09:36:30.301Z,1.58
2022-10-01T09:39:23.577Z,1.67
2022-10-01T09:42:09.263Z,1.63
2022-10-01T09:44:54.564Z,1.95
2022-10-01T09:47:44.131Z,1.52
2022-10-01T09:50:42.537Z,1.58
2022-10-01T09:54:01.261Z,1.63
2022-10-01T09:56:50.805Z,1.75
2022-10-01T09:59:48.951Z,1.98
2022-10-01T10:02:49.262Z,1.80
2022-10-01T10:05:46.452Z,2.35
2022-10-01T10:08:35.601Z,1.67
2022-10-01T10:11:24.503Z,1.55
2022-10-01T10:14:27.009Z,2.00
2022-10-01T10:17:16.633Z,2.30
2022-10-01T10:20:09.303Z,1.70
2022-10-01T10:22:54.749Z,1.60
2022-10-01T10:25:40.349Z,2.08
2022-10-01T10:28:25.868Z,1.65
2022-10-01T10:31:20.316Z,1.95
2022-10-01T10:34:17.429Z,1.85
2022-10-01T10:37:06.781Z,1.33
2022-10-01T10:39:53.727Z,1.83
2022-10-01T10:42:47.823Z,1.88
2022-10-01T10:45:38.703Z,1.80
2022-10-01T10:48:37.051Z,1.60
2022-10-01T10:51:22.797Z,2.00
2022-10-01T10:54:32.113Z,2.17
2022-10-01T10:57:31.879Z,1.50
2022-10-01T11:00:20.149Z,1.88
2022-10-01T11:03:06.488Z,1.92
2022-10-01T11:05:56.276Z,1.98
2022-10-01T11:08:42.869Z,2.22
2022-10-01T11:11:57.347Z,1.73
2022-10-01T11:15:11.712Z,1.80
2022-10-01T11:18:10.369Z,1.70
2022-10-01T11:21:25.575Z,2.08
2022-10-01T11:24:49.331Z,1.95
2022-10-01T11:28:04.788Z,1.60
2022-10-01T11:31:22.528Z,2.30
2022-10-01T11:34:19.033Z,2.08
2022-10-01T11:37:16.333Z,1.80
2022-10-01T11:40:13.316Z,1.60
2022-10-01T11:43:08.640Z,1.58
2022-10-01T11:46:04.082Z,1.48
2022-10-01T11:49:02.178Z,1.67
2022-10-01T11:51:55.024Z,1.48
2022-10-01T11:54:56.115Z,1.77
2022-10-01T11:58:00.249Z,1.60
2022-10-01T12:01:04.253Z,1.50
2022-10-01T12:03:52.722Z,1.60
2022-10-01T12:07:13.367Z,1.90
2022-10-01T12:10:18.060Z,1.58
2022-10-01T12:13:15.752Z,2.50
2022-10-01T12:16:23.794Z,1.90
2022-10-01T12:19:18.428Z,1.85
2022-10-01T12:22:12.678Z,1.80
2022-10-01T12:24:57.993Z,1.60
2022-10-01T12:28:12.871Z,1.90
2022-10-01T12:31:12.454Z,1.80
2022-10-01T12:34:11.738Z,1.98
2022-10-01T12:37:18.663Z,1.33
2022-10-01T12:40:10.412Z,1.67
2022-10-01T12:43:04.184Z,1.67
2022-10-01T12:46:15.958Z,1.65
2022-10-01T12:49:22.290Z,1.77
2022-10-01T12:52:26.550Z,1.83
2022-10-01T12:55:40.558Z,1.98
2022-10-01T12:58:51.124Z,1.85
2022-10-01T13:02:09.158Z,1.75
2022-10-01T13:05:29.300Z,2.00
2022-10-01T13:08:17.663Z,1.58
2022-10-01T13:11:40.124Z,1.70
2022-10-01T13:14:25.898Z,1.92
2022-10-01T13:17:14.049Z,1.38
2022-10-01T13:20:12.004Z,1.77
2022-10-01T13:23:18.544Z,1.75
2022-10-01T13:26:36.846Z,1.52
2022-10-01T13:29:31.256Z,2.08
2022-10-01T13:32:49.950Z,1.98
2022-10-01T13:35:52.284Z,2.47
2022-10-01T13:38:37.572Z,1.58
2022-10-01T13:41:32.537Z,1.90
2022-10-01T13:44:35.049Z,1.98
2022-10-01T13:47:21.916Z,2.00
2022-10-01T13:50:23.871Z,1.85
2022-10-01T13:53:18.086Z,1.85
2022-10-01T13:56:05.121Z,1.50
2022-10-01T13:58:51.656Z,1.92
2022-10-01T14:01:39.921Z,1.83
2022-10-01T14:04:40.428Z,1.60
2022-10-01T14:07:30.239Z,1.83
2022-10-01T14:10:16.388Z,1.75
2022-10-01T14:13:21.911Z,1.70
2022-10-01T14:16:07.814Z,1.45
2022-10-01T14:18:53.260Z,1.92
2022-10-01T14:22:05.399Z,1.80
2022-10-01T14:24:59.436Z,1.42
2022-10-01T14:27:53.119Z,1.63
2022-10-01T14:30:58.490Z,1.65
2022-10-01T14:34:18.063Z,1.40
2022-10-01T14:37:06.969Z,1.63
2022-10-01T14:40:17.937Z,1.90
2022-10-01T14:43:18.396Z,2.35
2022-10-01T14:46:06.089Z,1.80
2022-10-01T14:48:59.334Z,1.63
2022-10-01T14:51:55.812Z,1.65
2022-10-01T14:54:51.352Z,1.45
2022-10-01T14:57:38.889Z,1.50
2022-10-01T15:00:28.028Z,1.50
2022-10-01T15:03:17.574Z,1.98
2022-10-01T15:06:05.145Z,1.77
2022-10-01T15:08:55.048Z,1.70
2022-10-01T15:11:44.415Z,1.52
2022-10-01T15:14:32.064Z,1.60
2022-10-01T15:17:25.392Z,1.70
2022-10-01T15:20:12.931Z,1.50
2022-10-01T15:23:01.417Z,1.63
2022-10-01T15:25:47.573Z,2.13
2022-10-01T15:28:35.404Z,1.58
2022-10-01T15:31:22.182Z,1.55
2022-10-01T15:34:11.667Z,1.48
2022-10-01T15:36:59.944Z,1.38
2022-10-01T15:39:49.476Z,1.60
2022-10-01T15:42:36.049Z,2.05
2022-10-01T15:45:25.892Z,1.85
2022-10-01T15:48:29.034Z,1.40
2022-10-01T15:51:25.663Z,1.63
2022-10-01T15:54:15.380Z,1.30
2022-10-01T15:57:02.145Z,1.40
2022-10-01T15:59:49.238Z,1.50
2022-10-01T16:02:35.273Z,1.50
2022-10-01T16:05:24.232Z,1.25
2022-10-01T16:08:21.754Z,1.58
2022-10-01T16:11:24.105Z,1.33
2022-10-01T16:14:31.845Z,1.40
2022-10-01T16:17:17.201Z,1.55
2022-10-01T16:20:28.549Z,1.88
2022-10-01T16:23:35.408Z,1.60
2022-10-01T16:26:33.941Z,1.40
2022-10-01T16:29:23.968Z,1.23
2022-10-01T16:32:14.101Z,1.52
2022-10-01T16:35:19.965Z,1.50
2022-10-01T16:38:08.113Z,1.30
2022-10-01T16:40:53.279Z,1.38
2022-10-01T16:43:39.028Z,1.65
2022-10-01T16:46:24.523Z,1.40
2022-10-01T16:49:14.910Z,1.50
2022-10-01T16:52:00.851Z,1.25
2022-10-01T16:54:47.273Z,1.52
2022-10-01T16:57:32.806Z,1.40
2022-10-01T17:00:20.319Z,1.30
2022-10-01T17:03:09.056Z,1.20
2022-10-01T17:05:54.264Z,1.20
2022-10-01T17:08:39.905Z,1.50
2022-10-01T17:11:26.902Z,1.40
2022-10-01T17:14:21.041Z,1.00
2022-10-01T17:17:06.102Z,1.70
2022-10-01T17:19:52.269Z,1.35
2022-10-01T17:22:39.011Z,1.80
2022-10-01T17:25:30.920Z,1.45
2022-10-01T17:31:06.916Z,1.60
2022-10-01T17:33:52.913Z,1.85
2022-10-01T17:36:38.912Z,1.50
2022-10-01T17:39:24.503Z,2.20
2022-10-01T17:42:10.694Z,2.47
2022-10-01T17:44:55.877Z,2.60
2022-10-01T17:47:45.963Z,2.42
2022-10-01T17:50:31.399Z,2.63
2022-10-01T17:53:17.035Z,2.92
2022-10-01T17:56:10.200Z,2.50
2022-10-01T17:58:55.480Z,2.53
2022-10-01T18:01:41.231Z,2.60
2022-10-01T18:04:26.646Z,2.13
2022-10-01T18:07:15.523Z,2.38
2022-10-01T18:10:00.659Z,2.53
2022-10-01T18:12:46.211Z,3.22
2022-10-01T18:15:31.485Z,2.50
2022-10-01T18:19:45.709Z,2.35
2022-10-01T18:21:22.126Z,2.30
2022-10-01T18:24:07.494Z,2.00
2022-10-01T18:26:53.008Z,2.30
2022-10-01T18:29:38.941Z,2.03
2022-10-01T18:32:26.961Z,2.30
2022-10-01T18:35:25.199Z,2.13
2022-10-01T18:38:27.241Z,1.80
2022-10-01T18:44:19.954Z,1.70
2022-10-01T18:47:26.032Z,2.10
2022-10-01T18:50:38.314Z,2.10
2022-10-01T18:53:58.331Z,2.03
2022-10-01T18:57:12.991Z,2.10
2022-10-01T19:00:17.347Z,2.47
2022-10-01T19:03:21.195Z,2.60
2022-10-01T19:06:37.137Z,3.13
2022-10-01T19:09:46.310Z,2.38
2022-10-01T19:13:11.655Z,2.65
2022-10-01T19:16:27.323Z,2.47
2022-10-01T19:19:43.777Z,1.65
2022-10-01T19:22:59.529Z,1.67
2022-10-01T19:26:01.760Z,1.42
2022-10-01T19:32:07.253Z,1.90
2022-10-01T19:35:11.311Z,1.42
2022-10-01T19:38:21.525Z,1.50
2022-10-01T19:41:18.259Z,1.60
2022-10-01T19:44:19.184Z,1.52
2022-10-01T19:47:15.592Z,1.40
2022-10-01T19:50:07.005Z,1.83
2022-10-01T19:52:55.273Z,1.60
2022-10-01T19:55:40.649Z,1.60
2022-10-01T19:58:26.795Z,1.63
2022-10-01T20:01:18.902Z,2.00
2022-10-01T20:04:14.500Z,1.58
2022-10-01T20:07:10.264Z,1.30
2022-10-01T20:10:29.639Z,1.85
2022-10-01T20:13:56.406Z,1.42
2022-10-01T20:16:47.399Z,1.77
2022-10-01T20:19:44.965Z,1.73
2022-10-01T20:22:43.252Z,1.70
2022-10-01T20:25:41.019Z,1.70
2022-10-01T20:28:51.942Z,1.58
2022-10-01T20:32:00.568Z,1.70
2022-10-01T20:34:57.795Z,1.42
2022-10-01T20:38:03.880Z,1.55
2022-10-01T20:41:03.375Z,1.55
2022-10-01T20:43:55.303Z,1.50
2022-10-01T20:46:45.613Z,1.63
2022-10-01T20:49:41.149Z,1.48
2022-10-01T20:52:29.713Z,1.67
2022-10-01T20:55:26.448Z,1.80
2022-10-01T20:58:14.223Z,1.58
2022-10-01T21:01:12.647Z,1.40
2022-10-01T21:04:05.891Z,1.58
2022-10-01T21:06:55.797Z,1.70
2022-10-01T21:09:49.144Z,1.60
2022-10-01T21:12:40.433Z,1.95
2022-10-01T21:15:37.434Z,1.50
2022-10-01T21:19:04.573Z,1.88
2022-10-01T21:22:21.371Z,1.55
2022-10-01T21:25:14.014Z,1.73
2022-10-01T21:28:18.463Z,1.95
2022-10-01T21:31:36.946Z,1.55
2022-10-01T21:34:42.481Z,1.60
2022-10-01T21:37:39.371Z,1.70
2022-10-01T21:40:50.986Z,1.60
2022-10-01T21:43:56.464Z,1.58
2022-10-01T21:46:50.778Z,1.67
2022-10-01T21:49:56.234Z,1.88
2022-10-01T21:52:52.088Z,1.85
2022-10-01T21:55:47.668Z,1.77
2022-10-01T21:58:59.185Z,1.85
2022-10-01T22:01:49.704Z,2.03
2022-10-01T22:04:43.102Z,2.60
2022-10-01T22:07:37.754Z,2.10
2022-10-01T22:10:33.898Z,1.80
2022-10-01T22:13:26.836Z,1.17
2022-10-01T22:16:15.336Z,0.95
2022-10-01T22:19:11.075Z,0.80
2022-10-01T22:22:03.480Z,0.80
2022-10-01T22:27:51.893Z,0.80
2022-10-01T22:33:35.092Z,1.08
2022-10-01T22:36:32.805Z,1.27
2022-10-01T22:39:24.546Z,1.33
2022-10-01T22:42:35.360Z,1.88
2022-10-01T22:45:26.318Z,1.90
2022-10-01T22:48:39.044Z,1.95
2022-10-01T22:51:50.004Z,1.98
2022-10-01T22:55:00.560Z,1.75
2022-10-01T22:57:48.741Z,2.30
2022-10-01T23:00:52.817Z,2.42
2022-10-01T23:04:07.805Z,2.30
2022-10-01T23:07:14.365Z,2.35
2022-10-01T23:10:06.259Z,2.15
2022-10-01T23:13:09.880Z,1.55
2022-10-01T23:16:08.404Z,2.08
2022-10-01T23:19:15.756Z,1.90
2022-10-01T23:22:35.977Z,1.70
2022-10-01T23:25:52.102Z,1.48
2022-10-01T23:29:10.111Z,2.03
2022-10-01T23:32:20.577Z,1.75
2022-10-01T23:35:19.795Z,1.63
2022-10-01T23:38:23.006Z,2.40
2022-10-01T23:41:20.961Z,2.40
2022-10-01T23:44:22.992Z,2.00
2022-10-01T23:47:16.366Z,1.55
2022-10-01T23:50:05.597Z,1.88
2022-10-01T23:52:58.693Z,1.20
2022-10-01T23:56:18.740Z,1.10
2022-10-01T23:59:18.111Z,1.00
